Time;durP1;ratioP1;P1;durP2;ratioP2;P2;SDS_P1;SDS_P2;PMS_P1;PMS_P2;Temp;Humidity;BMP_temperature;BMP_pressure;BME280_temperature;BME280_humidity;BME280_pressure;Samples;Min_cycle;Max_cycle;Signal;HPM_P1;HPM_P2
2022/08/26 00:01:13;;;;;;;5.00;1.23;;;25.40;91.00;;;;;;5036307;28;20032;-77
2022/08/26 00:03:39;;;;;;;5.43;0.70;;;25.40;91.00;;;;;;5036146;28;20075;-78
2022/08/26 00:06:06;;;;;;;2.42;0.73;;;25.30;91.00;;;;;;5036203;28;20034;-77
2022/08/26 00:08:32;;;;;;;3.00;0.60;;;25.30;91.20;;;;;;5035619;28;20017;-78
2022/08/26 00:10:57;;;;;;;5.03;0.75;;;25.30;91.20;;;;;;5035893;28;20343;-78
2022/08/26 00:13:23;;;;;;;3.58;0.65;;;25.40;91.30;;;;;;5035869;28;20500;-78
2022/08/26 00:15:50;;;;;;;6.35;1.00;;;25.30;91.40;;;;;;5037224;28;20029;-77
2022/08/26 00:18:16;;;;;;;3.90;0.85;;;25.30;91.50;;;;;;5053630;28;20107;-78
2022/08/26 00:20:42;;;;;;;4.10;0.80;;;25.30;91.80;;;;;;5055787;28;20063;-78
2022/08/26 00:23:08;;;;;;;5.35;1.10;;;25.30;91.50;;;;;;5055506;28;20059;-77
2022/08/26 00:25:34;;;;;;;6.15;0.82;;;25.30;91.60;;;;;;5048782;28;20031;-78
2022/08/26 00:28:00;;;;;;;4.07;0.77;;;25.30;91.70;;;;;;5054384;28;20086;-78
2022/08/26 00:30:28;;;;;;;4.95;0.77;;;25.30;91.80;;;;;;5032816;28;20022;-78
2022/08/26 00:32:55;;;;;;;4.80;0.82;;;25.20;92.00;;;;;;5034611;28;20034;-78
2022/08/26 00:35:22;;;;;;;5.22;1.00;;;25.20;91.80;;;;;;5037102;28;20053;-79
2022/08/26 00:37:48;;;;;;;5.60;1.05;;;25.20;91.90;;;;;;5034820;28;20078;-78
2022/08/26 00:40:18;;;;;;;3.38;0.57;;;25.20;92.00;;;;;;5035576;28;20033;-79
2022/08/26 00:42:44;;;;;;;4.63;1.13;;;25.10;92.00;;;;;;5035301;28;20030;-77
2022/08/26 00:45:11;;;;;;;5.07;1.08;;;25.20;92.00;;;;;;5034775;28;20136;-77
2022/08/26 00:47:51;;;;;;;5.88;0.85;;;25.10;92.00;;;;;;5051939;28;20104;-78
2022/08/26 00:50:40;;;;;;;3.97;0.52;;;25.00;92.20;;;;;;5055124;28;20118;-78
2022/08/26 00:53:20;;;;;;;5.38;0.50;;;25.10;92.20;;;;;;5049874;28;20045;-78
2022/08/26 00:55:53;;;;;;;2.97;0.80;;;25.00;92.20;;;;;;5035432;28;20021;-78
2022/08/26 00:58:21;;;;;;;6.40;0.90;;;25.10;92.10;;;;;;5035293;28;20029;-78
2022/08/26 01:00:47;;;;;;;4.50;0.80;;;25.00;92.10;;;;;;5034058;28;20021;-77
2022/08/26 01:03:15;;;;;;;4.38;0.80;;;25.00;92.20;;;;;;5034490;28;20053;-78
2022/08/26 01:05:41;;;;;;;4.65;0.65;;;25.00;92.10;;;;;;5035204;28;20052;-78
2022/08/26 01:08:07;;;;;;;4.88;0.80;;;25.30;92.30;;;;;;5034797;28;20478;-74
2022/08/26 01:10:33;;;;;;;3.25;0.80;;;25.40;91.80;;;;;;5033060;28;20462;-75
2022/08/26 01:13:01;;;;;;;6.18;0.80;;;25.20;91.90;;;;;;5035846;28;20037;-74
2022/08/26 01:15:33;;;;;;;4.80;0.70;;;25.00;92.10;;;;;;5034972;28;20021;-75
2022/08/26 01:17:59;;;;;;;;;;;25.00;92.20;;;;;;5035313;28;20025;-75
2022/08/26 01:20:56;;;;;;;3.83;0.63;;;25.10;92.10;;;;;;5035377;28;20291;-76
2022/08/26 01:23:25;;;;;;;2.83;0.47;;;25.10;92.20;;;;;;5037329;28;20497;-75
2022/08/26 01:25:56;;;;;;;2.92;0.60;;;24.90;92.20;;;;;;5037646;28;20018;-75
2022/08/26 01:28:26;;;;;;;5.70;0.52;;;24.80;92.40;;;;;;5037557;28;20021;-78
2022/08/26 01:30:53;;;;;;;3.33;0.50;;;24.90;92.30;;;;;;5034531;28;20017;-77
2022/08/26 01:33:25;;;;;;;5.80;0.73;;;24.90;92.40;;;;;;5036083;28;20083;-78
2022/08/26 01:35:51;;;;;;;4.38;0.85;;;24.80;92.50;;;;;;5034256;28;20020;-78
2022/08/26 01:38:17;;;;;;;4.00;0.70;;;24.80;92.50;;;;;;5034115;28;20034;-78
2022/08/26 01:40:44;;;;;;;4.80;0.80;;;24.80;92.40;;;;;;5034224;28;20024;-78
2022/08/26 01:43:16;;;;;;;5.45;0.80;;;24.80;92.40;;;;;;5034533;28;20029;-77
2022/08/26 01:45:44;;;;;;;1.98;0.50;;;24.80;92.40;;;;;;5034161;28;20050;-77
2022/08/26 01:48:19;;;;;;;3.97;0.60;;;24.70;92.40;;;;;;5034281;28;20025;-78
2022/08/26 01:50:46;;;;;;;4.75;0.65;;;24.80;92.40;;;;;;5033391;28;20036;-78
2022/08/26 01:53:15;;;;;;;3.53;0.60;;;24.70;92.50;;;;;;5034243;28;20083;-78
2022/08/26 01:55:46;;;;;;;4.50;0.80;;;24.70;92.50;;;;;;5034221;28;20026;-78
2022/08/26 01:58:20;;;;;;;4.15;0.60;;;24.60;92.50;;;;;;5033676;28;20034;-78
2022/08/26 02:00:46;;;;;;;4.95;0.60;;;24.60;92.50;;;;;;5032695;28;20026;-78
2022/08/26 02:03:20;;;;;;;5.20;0.80;;;24.60;92.60;;;;;;5034053;28;20026;-78
2022/08/26 02:06:04;;;;;;;3.97;0.45;;;24.60;92.50;;;;;;5032557;28;20032;-75
2022/08/26 02:08:37;;;;;;;3.40;0.60;;;24.60;92.50;;;;;;5052845;28;20049;-77
2022/08/26 02:11:03;;;;;;;3.03;0.90;;;24.60;92.50;;;;;;5053725;28;20013;-78
2022/08/26 02:13:31;;;;;;;2.20;0.52;;;24.60;92.60;;;;;;5053560;28;20063;-77
2022/08/26 02:16:00;;;;;;;3.55;0.45;;;24.60;92.60;;;;;;5051212;28;20092;-77
2022/08/26 02:18:28;;;;;;;2.40;0.77;;;24.60;92.60;;;;;;5041651;28;20045;-74
2022/08/26 02:20:55;;;;;;;2.50;0.80;;;24.50;92.70;;;;;;5033395;28;20497;-77
2022/08/26 02:23:21;;;;;;;3.42;0.70;;;24.40;92.70;;;;;;5033833;28;20049;-77
2022/08/26 02:26:12;;;;;;;2.47;0.40;;;24.40;92.80;;;;;;5033010;28;20032;-77
2022/08/26 02:29:02;;;;;;;3.88;0.65;;;24.50;92.80;;;;;;5033489;28;20083;-77
2022/08/26 02:31:28;;;;;;;3.50;0.68;;;24.50;92.70;;;;;;5033539;28;20024;-77
2022/08/26 02:33:53;;;;;;;3.03;0.47;;;24.50;92.70;;;;;;5033038;28;20104;-77
2022/08/26 02:36:24;;;;;;;2.60;0.73;;;24.40;92.80;;;;;;5032998;28;20427;-77
2022/08/26 02:38:50;;;;;;;3.97;0.50;;;24.40;92.90;;;;;;5033328;28;20029;-77
2022/08/26 02:41:16;;;;;;;2.90;0.55;;;24.40;92.70;;;;;;5033323;28;20430;-78
2022/08/26 02:43:42;;;;;;;3.10;0.50;;;24.40;92.80;;;;;;5033374;28;20017;-77
2022/08/26 02:46:08;;;;;;;3.80;0.50;;;24.40;92.90;;;;;;5032704;28;20033;-78
2022/08/26 02:48:33;;;;;;;3.92;0.65;;;24.40;92.90;;;;;;5033049;28;20523;-75
2022/08/26 02:51:00;;;;;;;4.35;0.52;;;24.40;92.80;;;;;;5033125;28;20083;-78
2022/08/26 02:53:27;;;;;;;2.78;0.43;;;24.40;92.90;;;;;;5032698;28;20482;-78
2022/08/26 02:55:53;;;;;;;2.58;0.45;;;24.30;92.90;;;;;;5033323;28;20021;-78
2022/08/26 02:58:19;;;;;;;4.25;0.75;;;24.40;92.90;;;;;;5033081;28;20025;-77
2022/08/26 03:00:46;;;;;;;5.50;0.80;;;24.30;92.90;;;;;;5032657;28;20021;-77
2022/08/26 03:03:14;;;;;;;3.60;0.80;;;24.30;92.90;;;;;;5052105;28;20025;-77
2022/08/26 03:05:40;;;;;;;3.28;0.82;;;24.30;93.00;;;;;;5053154;28;20032;-78
2022/08/26 03:08:07;;;;;;;2.50;0.55;;;24.30;92.90;;;;;;5052782;28;20021;-78
2022/08/26 03:10:33;;;;;;;3.97;0.80;;;24.20;93.00;;;;;;5053076;28;20047;-77
2022/08/26 03:12:59;;;;;;;2.80;0.65;;;24.20;93.00;;;;;;5048141;28;20041;-78
2022/08/26 03:15:25;;;;;;;3.75;0.77;;;24.30;92.90;;;;;;5053153;28;20021;-78
2022/08/26 03:17:50;;;;;;;3.15;0.55;;;24.30;92.90;;;;;;5052564;28;20029;-77
2022/08/26 03:20:17;;;;;;;4.85;0.50;;;24.30;93.00;;;;;;5052906;28;20188;-76
2022/08/26 03:22:42;;;;;;;4.30;0.55;;;24.20;93.10;;;;;;5050861;28;20029;-78
2022/08/26 03:25:11;;;;;;;3.38;0.60;;;24.10;93.10;;;;;;5054766;28;20101;-77
2022/08/26 03:27:36;;;;;;;4.00;0.50;;;24.20;93.40;;;;;;5056807;28;20029;-77
2022/08/26 03:32:48;;;;;;;2.45;0.50;;;24.20;93.10;;;;;;5036589;28;20072;-77
2022/08/26 03:35:14;;;;;;;4.70;0.82;;;24.20;93.00;;;;;;5037035;28;20053;-78
2022/08/26 03:37:40;;;;;;;3.90;0.45;;;24.20;93.00;;;;;;5036660;28;20100;-76
2022/08/26 03:40:09;;;;;;;2.40;0.45;;;24.10;93.10;;;;;;5039893;28;20538;-78
2022/08/26 03:42:36;;;;;;;3.10;0.55;;;24.10;93.20;;;;;;5055701;28;20071;-77
2022/08/26 03:45:05;;;;;;;4.53;0.82;;;24.10;93.20;;;;;;5055412;28;20020;-78
2022/08/26 03:47:32;;;;;;;3.00;0.65;;;24.10;93.00;;;;;;5056104;28;20043;-77
2022/08/26 03:49:58;;;;;;;3.28;0.43;;;24.10;93.10;;;;;;5051871;28;20374;-77
2022/08/26 03:52:24;;;;;;;3.70;0.47;;;24.00;93.10;;;;;;5036559;28;20021;-78
2022/08/26 03:54:49;;;;;;;3.75;0.55;;;24.00;93.20;;;;;;5036413;28;20493;-76
2022/08/26 03:57:15;;;;;;;5.13;1.00;;;24.00;93.20;;;;;;5036454;28;20018;-78
2022/08/26 03:59:40;;;;;;;3.53;0.73;;;24.00;93.20;;;;;;5035998;28;20470;-76
2022/08/26 04:02:06;;;;;;;2.33;0.35;;;24.00;93.30;;;;;;5034829;28;20037;-77
2022/08/26 04:04:31;;;;;;;3.42;0.80;;;23.90;93.40;;;;;;5048564;28;20031;-77
2022/08/26 04:06:58;;;;;;;3.75;0.57;;;23.90;93.40;;;;;;5055980;28;20025;-75
2022/08/26 04:09:26;;;;;;;2.20;0.45;;;24.00;93.30;;;;;;5056382;28;20454;-75
2022/08/26 04:11:52;;;;;;;1.75;0.40;;;24.00;93.20;;;;;;5036651;28;20055;-74
2022/08/26 04:14:20;;;;;;;2.42;0.52;;;24.00;93.10;;;;;;5036035;28;20482;-76
2022/08/26 04:16:47;;;;;;;2.90;0.38;;;24.00;93.10;;;;;;5035912;28;20478;-74
2022/08/26 04:19:13;;;;;;;3.15;0.90;;;24.00;93.10;;;;;;5040743;28;20029;-74
2022/08/26 04:21:40;;;;;;;3.05;0.47;;;24.00;93.10;;;;;;5055302;28;20044;-74
2022/08/26 04:24:07;;;;;;;2.67;0.55;;;24.00;93.20;;;;;;5055710;28;20107;-75
2022/08/26 04:26:36;;;;;;;3.15;0.50;;;24.00;93.10;;;;;;5055911;28;20021;-74
2022/08/26 04:29:04;;;;;;;4.80;0.50;;;24.00;93.10;;;;;;5044458;28;20030;-75
2022/08/26 04:31:31;;;;;;;1.98;0.50;;;24.00;93.10;;;;;;5036062;28;20049;-74
2022/08/26 04:33:58;;;;;;;3.05;0.50;;;24.00;93.00;;;;;;5035473;28;20108;-74
2022/08/26 04:36:23;;;;;;;2.25;0.65;;;23.90;93.10;;;;;;5035697;28;20083;-74
2022/08/26 04:38:52;;;;;;;2.00;0.40;;;24.00;93.00;;;;;;5035113;28;20049;-75
2022/08/26 04:41:18;;;;;;;3.88;0.80;;;24.00;93.00;;;;;;5035537;28;20479;-77
2022/08/26 04:43:45;;;;;;;4.35;0.40;;;24.00;93.10;;;;;;5035522;28;20375;-74
2022/08/26 04:46:14;;;;;;;3.25;0.68;;;23.90;93.20;;;;;;5035166;28;20029;-77
2022/08/26 04:48:39;;;;;;;4.55;0.80;;;24.00;93.20;;;;;;5041786;28;20111;-73
2022/08/26 04:51:05;;;;;;;3.17;0.40;;;23.90;93.20;;;;;;5043440;28;20096;-74
2022/08/26 04:53:31;;;;;;;3.42;0.77;;;23.90;93.10;;;;;;5053588;28;20083;-75
2022/08/26 04:55:56;;;;;;;1.77;0.55;;;23.90;93.10;;;;;;5055063;28;20021;-74
2022/08/26 04:58:23;;;;;;;2.38;0.50;;;23.90;93.10;;;;;;5055004;28;20029;-76
2022/08/26 05:00:51;;;;;;;8.02;0.65;;;23.90;93.20;;;;;;5050013;28;20013;-76
2022/08/26 05:03:18;;;;;;;3.70;0.30;;;23.90;93.10;;;;;;5043322;28;20033;-76
2022/08/26 05:05:46;;;;;;;4.28;1.15;;;23.90;93.10;;;;;;5032591;28;20036;-74
2022/08/26 05:08:13;;;;;;;11.10;2.00;;;23.90;93.20;;;;;;5031281;28;20026;-76
2022/08/26 05:10:46;;;;;;;4.05;0.60;;;23.80;93.50;;;;;;5033668;28;20056;-74
2022/08/26 05:13:14;;;;;;;3.72;0.40;;;24.00;93.40;;;;;;5034732;28;20030;-74
2022/08/26 05:15:39;;;;;;;3.33;0.38;;;24.10;93.20;;;;;;5037787;28;20048;-74
2022/08/26 05:18:06;;;;;;;4.63;0.50;;;24.20;93.00;;;;;;5034937;28;20466;-74
2022/08/26 05:20:37;;;;;;;6.22;0.73;;;24.30;93.20;;;;;;5034964;28;20057;-74
2022/08/26 05:23:03;;;;;;;2.97;0.47;;;24.40;92.80;;;;;;5034580;28;20378;-74
2022/08/26 05:25:29;;;;;;;4.60;0.45;;;24.40;92.60;;;;;;5034867;28;20116;-75
2022/08/26 05:27:55;;;;;;;3.40;0.70;;;24.40;92.80;;;;;;5034697;28;20542;-74
2022/08/26 05:30:20;;;;;;;4.75;0.52;;;24.40;92.50;;;;;;5034651;28;20105;-77
2022/08/26 05:32:48;;;;;;;4.28;0.47;;;24.40;92.50;;;;;;5034271;28;20034;-76
2022/08/26 05:35:14;;;;;;;1.38;0.22;;;24.40;92.60;;;;;;5034649;28;20095;-74
2022/08/26 05:37:41;;;;;;;1.63;0.40;;;24.40;92.50;;;;;;5034681;28;20013;-75
2022/08/26 05:40:07;;;;;;;4.78;0.68;;;24.40;92.50;;;;;;5034278;28;20040;-75
2022/08/26 05:42:33;;;;;;;4.32;0.52;;;24.40;92.50;;;;;;5045681;28;20405;-76
2022/08/26 05:44:58;;;;;;;2.10;0.38;;;24.40;92.40;;;;;;5054419;28;20029;-75
2022/08/26 05:47:25;;;;;;;3.78;0.60;;;24.30;92.40;;;;;;5053755;28;20079;-74
2022/08/26 05:49:51;;;;;;;4.43;0.50;;;24.30;92.40;;;;;;5049490;28;20351;-75
2022/08/26 05:52:17;;;;;;;4.38;0.50;;;24.40;92.30;;;;;;5032875;28;20034;-76
2022/08/26 05:54:43;;;;;;;5.13;0.85;;;24.40;92.50;;;;;;5048788;28;20367;-77
2022/08/26 05:57:10;;;;;;;4.10;0.50;;;24.30;92.40;;;;;;5036182;28;20042;-74
2022/08/26 05:59:37;;;;;;;5.10;0.50;;;24.30;92.40;;;;;;5034415;28;20033;-75
2022/08/26 06:02:04;;;;;;;1.90;0.47;;;24.40;92.30;;;;;;5035717;28;20022;-74
2022/08/26 06:04:30;;;;;;;3.35;0.60;;;24.40;92.20;;;;;;5034191;28;20104;-74
2022/08/26 06:06:56;;;;;;;4.13;0.70;;;24.40;92.20;;;;;;5035254;28;20528;-73
2022/08/26 06:09:22;;;;;;;3.80;0.70;;;24.40;92.20;;;;;;5032922;28;20052;-77
2022/08/26 06:11:48;;;;;;;2.78;0.50;;;24.40;92.20;;;;;;5044643;28;20108;-75
2022/08/26 06:14:15;;;;;;;4.68;0.68;;;24.50;92.10;;;;;;5044581;28;20141;-75
2022/08/26 06:16:43;;;;;;;5.93;0.30;;;24.60;92.00;;;;;;5052842;28;20029;-74
2022/08/26 06:19:11;;;;;;;2.80;0.55;;;24.60;91.90;;;;;;5045123;28;20025;-75
2022/08/26 06:21:38;;;;;;;2.92;0.55;;;24.50;92.10;;;;;;5033026;28;20414;-73
2022/08/26 06:26:55;;;;;;;7.75;0.68;;;24.50;91.80;;;;;;5035347;28;20039;-77
2022/08/26 06:29:24;;;;;;;3.15;0.32;;;24.50;91.60;;;;;;5042006;28;20060;-77
2022/08/26 06:31:49;;;;;;;6.13;0.75;;;24.60;91.50;;;;;;5045614;28;20029;-76
2022/08/26 06:34:16;;;;;;;3.42;0.65;;;24.60;91.50;;;;;;5043993;28;20035;-75
2022/08/26 06:36:43;;;;;;;4.75;0.93;;;24.70;91.40;;;;;;5052167;28;20025;-75
2022/08/26 06:39:11;;;;;;;7.35;0.63;;;24.60;91.40;;;;;;5047766;28;20025;-73
2022/08/26 06:41:37;;;;;;;5.50;0.55;;;24.60;91.40;;;;;;5047882;28;20476;-77
2022/08/26 06:44:05;;;;;;;4.88;0.73;;;24.60;91.50;;;;;;5051378;28;20074;-77
2022/08/26 06:46:31;;;;;;;3.38;0.90;;;24.50;91.60;;;;;;5031771;28;20025;-76
2022/08/26 06:48:57;;;;;;;7.40;0.75;;;24.60;91.70;;;;;;5037303;28;20391;-77
2022/08/26 06:51:29;;;;;;;9.95;0.93;;;24.50;91.70;;;;;;5034833;28;20108;-74
2022/08/26 06:53:58;;;;;;;7.50;0.77;;;24.40;91.80;;;;;;5051654;28;20049;-77
2022/08/26 06:56:26;;;;;;;6.47;0.70;;;24.40;91.80;;;;;;5036702;28;20028;-77
2022/08/26 06:58:52;;;;;;;7.53;0.85;;;24.50;92.00;;;;;;5043233;28;20026;-77
2022/08/26 07:01:24;;;;;;;9.27;0.77;;;24.60;91.60;;;;;;5041443;28;20028;-76
2022/08/26 07:03:52;;;;;;;6.32;0.75;;;24.60;91.70;;;;;;5043573;28;20021;-75
2022/08/26 07:06:18;;;;;;;6.43;1.08;;;24.70;91.90;;;;;;5042319;28;20074;-77
2022/08/26 07:08:49;;;;;;;3.25;0.68;;;24.50;91.90;;;;;;5041038;28;20032;-74
2022/08/26 07:11:15;;;;;;;3.75;0.70;;;24.50;91.70;;;;;;5043422;28;20029;-75
2022/08/26 07:13:41;;;;;;;4.85;0.60;;;24.60;91.80;;;;;;5040298;28;20041;-75
2022/08/26 07:16:10;;;;;;;5.35;0.90;;;24.60;91.70;;;;;;5043957;28;20028;-75
2022/08/26 07:18:37;;;;;;;6.95;0.93;;;24.60;91.70;;;;;;5046603;28;20052;-76
2022/08/26 07:21:05;;;;;;;2.55;0.43;;;24.60;91.50;;;;;;5057816;28;20104;-76
2022/08/26 07:23:32;;;;;;;3.78;0.68;;;24.30;91.80;;;;;;5072394;28;20526;-75
2022/08/26 07:25:58;;;;;;;7.13;0.70;;;24.40;91.80;;;;;;5052255;28;20071;-76
2022/08/26 07:28:24;;;;;;;4.05;0.40;;;24.50;91.80;;;;;;5050863;28;20025;-76
2022/08/26 07:30:50;;;;;;;3.90;0.43;;;24.60;91.70;;;;;;5047237;28;20032;-76
2022/08/26 07:33:16;;;;;;;4.32;0.68;;;24.60;91.50;;;;;;5052042;28;20041;-76
2022/08/26 07:35:43;;;;;;;2.65;0.40;;;24.50;91.70;;;;;;5046749;28;20080;-75
2022/08/26 07:38:09;;;;;;;4.30;0.70;;;24.60;91.60;;;;;;5043452;28;20029;-74
2022/08/26 07:40:34;;;;;;;4.53;0.60;;;24.60;91.40;;;;;;5035320;28;20026;-77
2022/08/26 07:43:00;;;;;;;3.67;0.40;;;24.60;91.30;;;;;;5042237;28;20060;-77
2022/08/26 07:45:26;;;;;;;4.45;0.75;;;24.60;91.30;;;;;;5049943;28;20054;-78
2022/08/26 07:47:51;;;;;;;2.50;0.50;;;24.60;91.20;;;;;;5032111;28;20470;-76
2022/08/26 07:50:17;;;;;;;6.22;0.55;;;24.50;91.20;;;;;;5033057;28;20035;-74
2022/08/26 07:52:43;;;;;;;4.53;0.52;;;24.50;91.20;;;;;;5032809;28;20030;-75
2022/08/26 07:55:09;;;;;;;4.38;0.35;;;24.50;91.20;;;;;;5040617;28;20025;-75
2022/08/26 07:57:34;;;;;;;3.13;0.52;;;24.40;91.20;;;;;;5051414;28;20538;-75
2022/08/26 08:00:00;;;;;;;4.03;0.50;;;24.50;91.50;;;;;;5042372;28;20021;-75
2022/08/26 08:02:27;;;;;;;2.58;0.60;;;24.60;91.60;;;;;;5052630;28;20428;-73
2022/08/26 08:04:55;;;;;;;4.03;0.65;;;24.60;91.50;;;;;;5051074;28;20017;-73
2022/08/26 08:07:21;;;;;;;4.50;0.63;;;24.70;91.50;;;;;;5030813;28;20041;-76
2022/08/26 08:09:50;;;;;;;6.35;0.57;;;24.60;91.70;;;;;;5031647;28;20405;-73
2022/08/26 08:12:17;;;;;;;7.65;1.08;;;24.70;91.80;;;;;;5047727;28;20036;-75
2022/08/26 08:14:45;;;;;;;9.00;1.20;;;24.70;91.80;;;;;;5053463;28;20057;-75
2022/08/26 08:17:14;;;;;;;3.53;0.43;;;24.70;91.70;;;;;;5042869;28;20063;-79
2022/08/26 08:19:40;;;;;;;6.68;0.93;;;24.70;91.80;;;;;;5041049;28;20020;-75
2022/08/26 08:22:06;;;;;;;4.38;0.80;;;24.70;91.80;;;;;;5042176;28;20029;-75
2022/08/26 08:24:32;;;;;;;4.72;0.50;;;24.70;91.70;;;;;;5040936;28;20033;-73
2022/08/26 08:27:00;;;;;;;3.72;0.52;;;24.60;91.20;;;;;;5049963;28;20036;-76
2022/08/26 08:29:28;;;;;;;5.50;0.60;;;24.60;91.20;;;;;;5037641;28;20106;-75
2022/08/26 08:31:54;;;;;;;4.63;0.70;;;24.70;91.10;;;;;;5044470;28;20017;-75
2022/08/26 08:34:21;;;;;;;5.35;0.50;;;24.80;90.90;;;;;;5042361;28;20075;-76
2022/08/26 08:36:47;;;;;;;4.78;0.60;;;24.80;90.60;;;;;;5052746;28;20067;-75
2022/08/26 08:39:13;;;;;;;5.75;0.40;;;24.80;90.40;;;;;;5048106;28;20108;-73
2022/08/26 08:41:57;;;;;;;6.47;0.30;;;24.70;90.20;;;;;;5062482;28;20043;-73
2022/08/26 08:44:24;;;;;;;4.28;0.50;;;24.70;90.10;;;;;;5044528;28;20076;-70
2022/08/26 08:46:55;;;;;;;5.35;0.40;;;24.60;90.10;;;;;;5054045;28;20059;-73
2022/08/26 08:49:22;;;;;;;4.97;0.75;;;24.60;90.00;;;;;;5044301;28;20634;-74
2022/08/26 08:52:00;;;;;;;3.13;0.47;;;24.70;90.20;;;;;;5053127;28;20108;-74
2022/08/26 08:54:28;;;;;;;3.83;0.30;;;24.60;89.70;;;;;;5053184;28;20474;-73
2022/08/26 08:57:08;;;;;;;3.88;0.55;;;24.60;90.00;;;;;;5048138;28;20104;-75
2022/08/26 08:59:37;;;;;;;3.78;1.20;;;24.60;90.00;;;;;;5041513;28;20100;-73
2022/08/26 09:02:34;;;;;;;3.53;0.40;;;24.60;90.10;;;;;;5049748;28;20059;-73
2022/08/26 09:05:22;;;;;;;3.80;0.50;;;24.50;90.40;;;;;;5054551;28;20063;-73
2022/08/26 09:08:08;;;;;;;2.90;0.30;;;24.50;90.30;;;;;;5053491;28;20025;-73
2022/08/26 09:10:35;;;;;;;2.90;0.20;;;24.60;90.40;;;;;;5040577;28;20060;-74
2022/08/26 09:13:08;;;;;;;3.10;0.40;;;24.60;90.40;;;;;;5050219;28;20025;-74
2022/08/26 09:16:07;;;;;;;2.22;0.30;;;24.70;90.40;;;;;;5050371;28;20504;-77
2022/08/26 09:18:47;;;;;;;4.72;0.43;;;24.70;90.40;;;;;;5031903;28;20505;-75
2022/08/26 09:21:15;;;;;;;4.05;0.60;;;24.70;90.40;;;;;;5037378;28;20036;-75
2022/08/26 09:23:42;;;;;;;5.40;0.43;;;24.70;90.40;;;;;;5051949;28;20025;-80
2022/08/26 09:26:15;;;;;;;3.78;0.63;;;24.50;90.70;;;;;;5041075;28;20478;-76
2022/08/26 09:28:45;;;;;;;3.42;0.40;;;24.60;90.50;;;;;;5036222;28;20033;-82
2022/08/26 09:31:21;;;;;;;4.80;0.52;;;24.60;90.20;;;;;;5044413;28;20206;-73
2022/08/26 09:33:50;;;;;;;7.55;0.43;;;24.70;90.40;;;;;;5040276;28;20070;-73
2022/08/26 09:36:34;;;;;;;5.38;0.57;;;24.70;89.80;;;;;;5031769;28;20037;-74
2022/08/26 09:38:59;;;;;;;2.65;0.45;;;24.60;89.40;;;;;;5038199;28;20033;-74
2022/08/26 09:41:32;;;;;;;5.05;0.47;;;24.60;89.00;;;;;;5062774;28;20031;-73
2022/08/26 09:44:14;;;;;;;5.03;0.50;;;24.70;89.00;;;;;;5055324;28;20040;-78
2022/08/26 09:46:45;;;;;;;2.72;0.15;;;24.70;89.00;;;;;;5037999;28;20465;-78
2022/08/26 09:49:28;;;;;;;2.40;0.40;;;24.60;89.10;;;;;;5045801;28;20039;-79
2022/08/26 09:52:25;;;;;;;2.17;0.35;;;24.60;88.70;;;;;;5041303;28;20425;-81
2022/08/26 09:55:23;;;;;;;4.88;0.70;;;24.80;89.30;;;;;;5028597;28;20061;-79
2022/08/26 09:57:53;;;;;;;2.17;0.20;;;24.80;89.30;;;;;;5007131;28;20045;-76
2022/08/26 10:00:27;;;;;;;1.45;0.43;;;24.80;88.00;;;;;;5048477;28;20392;-90
2022/08/26 10:02:53;;;;;;;3.53;0.20;;;24.70;87.80;;;;;;5032349;28;20029;-82
2022/08/26 10:05:48;;;;;;;4.10;0.57;;;24.80;88.40;;;;;;5047583;28;20089;-77
2022/08/26 10:08:27;;;;;;;4.10;0.47;;;24.80;88.50;;;;;;5031352;28;20044;-77
2022/08/26 10:10:56;;;;;;;1.23;0.13;;;24.80;88.00;;;;;;5030455;28;20108;-75
2022/08/26 10:13:30;;;;;;;1.38;0.20;;;24.80;87.20;;;;;;5032625;28;20061;-75
2022/08/26 10:16:04;;;;;;;1.73;0.10;;;24.80;87.20;;;;;;5031079;28;20033;-77
2022/08/26 10:18:40;;;;;;;2.58;0.30;;;24.80;87.30;;;;;;5039905;28;20025;-75
2022/08/26 10:21:11;;;;;;;1.77;0.30;;;24.80;87.80;;;;;;5044877;28;20103;-75
2022/08/26 10:23:46;;;;;;;1.70;0.20;;;24.80;87.40;;;;;;5051143;28;20055;-74
2022/08/26 10:26:31;;;;;;;3.13;0.60;;;24.80;87.50;;;;;;5039931;28;20064;-79
2022/08/26 10:29:07;;;;;;;8.60;0.57;;;24.80;87.30;;;;;;5043612;28;20502;-78
2022/08/26 10:32:05;;;;;;;1.33;0.22;;;24.90;87.20;;;;;;5043120;28;20462;-77
2022/08/26 10:34:32;;;;;;;5.55;0.70;;;24.70;86.80;;;;;;5028655;28;20072;-75
2022/08/26 10:37:11;;;;;;;5.32;0.47;;;24.70;87.30;;;;;;5046204;28;20504;-75
2022/08/26 10:39:40;;;;;;;3.33;0.60;;;24.70;86.70;;;;;;5038942;28;20032;-77
2022/08/26 10:42:14;;;;;;;3.53;0.52;;;24.70;86.30;;;;;;5044023;28;20112;-73
2022/08/26 10:44:43;;;;;;;2.75;0.20;;;24.80;86.80;;;;;;5055742;28;20025;-77
2022/08/26 10:47:15;;;;;;;4.07;0.30;;;24.80;86.60;;;;;;5042745;28;20474;-75
2022/08/26 10:49:41;;;;;;;;;;;24.80;86.10;;;;;;5052459;28;20033;-74
2022/08/26 10:52:17;;;;;;;8.13;0.77;;;24.90;86.60;;;;;;5039967;28;19913;-74
2022/08/26 10:54:51;;;;;;;4.00;0.30;;;24.90;87.10;;;;;;5039946;28;20048;-78
2022/08/26 10:57:27;;;;;;;5.82;0.98;;;24.90;86.70;;;;;;5031650;28;20026;-74
2022/08/26 11:01:40;;;;;;;4.93;0.55;;;24.90;87.50;;;;;;5040447;28;20017;-73
2022/08/26 11:02:50;;;;;;;3.72;0.88;;;25.00;87.20;;;;;;5050841;28;20033;-74
2022/08/26 11:05:21;;;;;;;2.70;0.50;;;25.10;87.50;;;;;;5034338;28;20037;-78
2022/08/26 11:07:51;;;;;;;4.03;0.35;;;24.90;85.90;;;;;;5040265;28;20489;-76
2022/08/26 11:10:19;;;;;;;8.45;0.90;;;24.90;86.60;;;;;;5045259;28;20049;-78
2022/08/26 11:12:51;;;;;;;4.78;0.52;;;25.00;86.80;;;;;;5044304;28;20056;-78
2022/08/26 11:15:37;;;;;;;4.05;0.57;;;25.00;86.70;;;;;;5045739;28;20436;-73
2022/08/26 11:18:30;;;;;;;2.90;0.60;;;25.00;87.10;;;;;;5033619;28;20029;-77
2022/08/26 11:20:56;;;;;;;2.92;0.55;;;25.00;86.50;;;;;;5040036;28;20072;-77
2022/08/26 11:23:22;;;;;;;3.95;0.70;;;25.00;86.50;;;;;;5044029;28;20056;-75
2022/08/26 11:26:09;;;;;;;3.35;0.80;;;25.10;86.70;;;;;;5037866;28;20082;-78
2022/08/26 11:28:35;;;;;;;2.63;0.60;;;25.10;86.90;;;;;;5046590;28;20501;-77
2022/08/26 11:31:04;;;;;;;7.50;0.70;;;25.10;86.40;;;;;;5035862;28;20032;-78
2022/08/26 11:33:42;;;;;;;3.28;0.60;;;25.10;86.70;;;;;;5035145;28;20049;-83
2022/08/26 11:36:09;;;;;;;2.60;0.45;;;25.20;86.20;;;;;;5032712;28;20053;-77
2022/08/26 11:38:41;;;;;;;5.00;0.70;;;25.20;86.30;;;;;;5046782;28;20032;-77
2022/08/26 11:41:16;;;;;;;9.30;0.88;;;25.20;86.90;;;;;;5048977;28;20029;-80
2022/08/26 11:43:42;;;;;;;8.05;1.08;;;25.30;87.30;;;;;;5042056;28;20543;-79
2022/08/26 11:46:11;;;;;;;2.42;0.40;;;25.30;87.30;;;;;;5050759;28;20382;-80
2022/08/26 11:48:40;;;;;;;4.20;1.00;;;25.20;85.60;;;;;;5052806;28;20029;-83
2022/08/26 11:51:23;;;;;;;7.38;0.60;;;25.30;86.10;;;;;;5052564;28;20032;-83
2022/08/26 11:53:50;;;;;;;3.53;0.45;;;25.30;86.40;;;;;;5054132;28;20184;-77
2022/08/26 11:56:33;;;;;;;5.53;0.73;;;25.30;85.70;;;;;;5046878;28;20013;-86
2022/08/26 11:59:06;;;;;;;1.75;0.30;;;25.30;85.40;;;;;;5051056;28;20552;-83
2022/08/26 12:01:36;;;;;;;3.25;0.50;;;25.20;85.10;;;;;;5043427;28;20027;-81
2022/08/26 12:04:08;;;;;;;3.50;0.73;;;25.30;86.00;;;;;;5047880;28;20063;-78
2022/08/26 12:06:48;;;;;;;5.43;0.50;;;25.30;85.30;;;;;;5039237;28;20033;-78
2022/08/26 12:09:31;;;;;;;2.15;0.40;;;25.40;85.70;;;;;;5039337;28;20029;-76
2022/08/26 12:12:29;;;;;;;3.10;0.35;;;25.40;85.10;;;;;;5053061;28;20017;-76
2022/08/26 12:15:28;;;;;;;5.30;0.70;;;25.40;85.90;;;;;;5045674;28;20095;-78
2022/08/26 12:17:54;;;;;;;5.15;0.63;;;25.50;85.90;;;;;;4987692;28;20123;-82
2022/08/26 12:20:47;;;;;;;2.13;0.50;;;25.50;86.40;;;;;;5038113;28;20471;-75
2022/08/26 12:23:26;;;;;;;3.22;0.38;;;25.50;85.00;;;;;;5054619;28;20382;-76
2022/08/26 12:26:13;;;;;;;3.53;0.47;;;25.50;84.30;;;;;;5043100;28;20024;-76
2022/08/26 12:28:48;;;;;;;3.10;0.63;;;25.50;85.50;;;;;;5048974;28;20022;-77
2022/08/26 12:31:27;;;;;;;3.97;0.75;;;25.50;85.50;;;;;;5050207;28;20048;-76
2022/08/26 12:33:54;;;;;;;5.72;0.60;;;25.50;84.70;;;;;;5051672;28;20037;-75
2022/08/26 12:36:27;;;;;;;1.92;0.60;;;25.50;84.80;;;;;;5053631;28;20025;-74
2022/08/26 12:38:53;;;;;;;3.67;0.68;;;25.60;84.60;;;;;;5053730;28;20032;-76
2022/08/26 12:41:59;;;;;;;2.65;0.50;;;25.50;84.70;;;;;;5037969;28;20025;-81
2022/08/26 12:44:32;;;;;;;4.97;0.68;;;25.60;85.20;;;;;;4969228;28;20181;-79
2022/08/26 12:47:23;;;;;;;11.90;1.42;;;25.50;83.90;;;;;;4970977;28;20031;-70
2022/08/26 12:50:00;;;;;;;6.50;0.90;;;25.50;84.30;;;;;;5008932;28;20033;-76
2022/08/26 12:52:29;;;;;;;2.30;0.60;;;25.50;84.00;;;;;;5046513;28;20026;-78
2022/08/26 12:55:01;;;;;;;3.15;0.55;;;25.60;84.10;;;;;;5045824;28;20112;-75
2022/08/26 12:57:36;;;;;;;3.42;0.60;;;25.70;84.30;;;;;;5035943;28;20108;-78
2022/08/26 13:00:31;;;;;;;3.05;0.63;;;25.70;84.60;;;;;;5052590;28;20039;-72
2022/08/26 13:02:57;;;;;;;4.25;0.45;;;25.70;83.60;;;;;;5038403;28;20025;-71
2022/08/26 13:05:34;;;;;;;3.97;0.50;;;25.60;83.00;;;;;;5050442;28;20525;-75
2022/08/26 13:08:14;;;;;;;3.03;0.55;;;25.60;83.10;;;;;;5036069;28;20035;-80
2022/08/26 13:10:46;;;;;;;4.68;0.60;;;25.50;83.50;;;;;;5042223;28;20040;-78